createdAt,value
2018-08-05T00:00:11.806Z,19.98
2018-08-05T00:01:11.788Z,19.95
2018-08-05T00:02:11.770Z,19.96
2018-08-05T00:03:11.750Z,19.94
2018-08-05T00:04:11.731Z,19.96
2018-08-05T00:05:11.714Z,19.96
2018-08-05T00:06:11.694Z,19.92
2018-08-05T00:07:11.677Z,19.92
2018-08-05T00:08:11.658Z,19.96
2018-08-05T00:09:11.640Z,19.95
2018-08-05T00:10:11.622Z,19.92
2018-08-05T00:11:11.602Z,19.94
2018-08-05T00:12:11.586Z,19.96
2018-08-05T00:13:11.568Z,19.96
2018-08-05T00:14:11.547Z,19.96
2018-08-05T00:15:11.529Z,19.99
2018-08-05T00:16:11.510Z,19.96
2018-08-05T00:17:11.493Z,19.98
2018-08-05T00:18:11.473Z,19.99
2018-08-05T00:19:11.456Z,19.95
2018-08-05T00:20:11.440Z,19.94
2018-08-05T00:21:11.419Z,19.96
2018-08-05T00:22:11.400Z,19.91
2018-08-05T00:23:11.382Z,19.96
2018-08-05T00:24:11.458Z,19.95
2018-08-05T00:25:11.345Z,19.98
2018-08-05T00:26:11.328Z,20.01
2018-08-05T00:27:11.309Z,20.01
2018-08-05T00:28:11.289Z,20.08
2018-08-05T00:29:11.272Z,20.06
2018-08-05T00:30:11.253Z,20.08
2018-08-05T00:31:11.235Z,20.03
2018-08-05T00:32:11.216Z,20.05
2018-08-05T00:33:11.198Z,20.17
2018-08-05T00:34:11.180Z,20.06
2018-08-05T00:35:11.161Z,20.08
2018-08-05T00:36:11.141Z,20.05
2018-08-05T00:37:11.124Z,20.08
2018-08-05T00:38:11.108Z,20.06
2018-08-05T00:39:11.086Z,19.99
2018-08-05T00:40:11.070Z,20.01
2018-08-05T00:41:11.050Z,20.06
2018-08-05T00:42:11.034Z,20.06
2018-08-05T00:43:11.012Z,20.06
2018-08-05T00:44:11.000Z,20.11
2018-08-05T00:45:10.979Z,20.06
2018-08-05T00:46:10.959Z,20.14
2018-08-05T00:47:10.939Z,20.06
2018-08-05T00:48:10.923Z,20.11
2018-08-05T00:49:10.903Z,20.17
2018-08-05T00:50:10.882Z,20.16
2018-08-05T00:51:10.868Z,20.18
2018-08-05T00:52:10.848Z,20.18
2018-08-05T00:53:10.830Z,20.18
2018-08-05T00:54:10.810Z,20.14
2018-08-05T00:55:10.794Z,20.16
2018-08-05T00:56:10.772Z,20.17
2018-08-05T00:57:10.754Z,20.20
2018-08-05T00:58:10.735Z,20.17
2018-08-05T00:59:10.718Z,20.21
2018-08-05T01:00:10.699Z,20.10
2018-08-05T01:01:10.680Z,20.17
2018-08-05T01:02:10.664Z,20.17
2018-08-05T01:03:10.645Z,20.13
2018-08-05T01:04:10.625Z,20.17
2018-08-05T01:05:10.608Z,20.13
2018-08-05T01:06:10.589Z,20.17
2018-08-05T01:07:10.569Z,20.14
2018-08-05T01:08:10.553Z,20.14
2018-08-05T01:09:10.534Z,20.17
2018-08-05T01:10:10.517Z,20.10
2018-08-05T01:11:10.498Z,20.13
2018-08-05T01:12:10.479Z,20.08
2018-08-05T01:13:10.459Z,20.06
2018-08-05T01:14:10.440Z,20.08
2018-08-05T01:15:10.423Z,20.06
2018-08-05T01:16:10.404Z,20.08
2018-08-05T01:17:10.386Z,20.06
2018-08-05T01:18:10.367Z,20.03
2018-08-05T01:19:10.350Z,20.05
2018-08-05T01:20:10.330Z,20.10
2018-08-05T01:21:10.313Z,19.98
2018-08-05T01:22:10.292Z,19.98
2018-08-05T01:23:10.275Z,19.92
2018-08-05T01:24:10.257Z,19.80
2018-08-05T01:25:10.239Z,19.81
2018-08-05T01:26:10.218Z,19.81
2018-08-05T01:27:10.201Z,19.74
2018-08-05T01:28:10.182Z,19.71
2018-08-05T01:29:10.164Z,19.63
2018-08-05T01:30:10.145Z,19.61
2018-08-05T01:31:10.125Z,19.58
2018-08-05T01:32:10.108Z,19.54
2018-08-05T01:33:10.091Z,19.47
2018-08-05T01:34:10.070Z,19.46
2018-08-05T01:35:10.052Z,19.43
2018-08-05T01:36:10.037Z,19.36
2018-08-05T01:37:10.016Z,19.26
2018-08-05T01:38:09.995Z,19.28
2018-08-05T01:39:09.975Z,19.21
2018-08-05T01:40:09.957Z,19.21
2018-08-05T01:41:09.938Z,19.19
2018-08-05T01:42:09.919Z,19.14
2018-08-05T01:43:09.902Z,19.21
2018-08-05T01:44:09.881Z,19.19
2018-08-05T01:45:09.866Z,19.21
2018-08-05T01:46:09.843Z,19.18
2018-08-05T01:47:09.824Z,19.26
2018-08-05T01:48:09.806Z,19.32
2018-08-05T01:49:09.786Z,19.23
2018-08-05T01:50:09.768Z,19.19
2018-08-05T01:51:09.749Z,19.22
2018-08-05T01:52:09.730Z,19.19
2018-08-05T01:53:09.712Z,19.21
2018-08-05T01:54:09.692Z,19.23
2018-08-05T01:55:09.672Z,19.28
2018-08-05T01:56:09.655Z,19.19
2018-08-05T01:57:09.634Z,19.21
2018-08-05T01:58:09.616Z,19.21
2018-08-05T01:59:09.597Z,19.21
2018-08-05T02:00:09.578Z,19.19
2018-08-05T02:01:09.560Z,19.13
2018-08-05T02:02:09.551Z,19.19
2018-08-05T02:03:09.522Z,19.06
2018-08-05T02:04:09.510Z,19.10
2018-08-05T02:05:09.484Z,19.16
2018-08-05T02:06:09.464Z,19.13
2018-08-05T02:07:09.445Z,19.18
2018-08-05T02:08:09.426Z,19.07
2018-08-05T02:09:09.406Z,19.13
2018-08-05T02:10:09.388Z,19.06
2018-08-05T02:11:09.370Z,18.91
2018-08-05T02:12:09.349Z,19.10
2018-08-05T02:13:09.332Z,18.94
2018-08-05T02:14:09.311Z,19.02
2018-08-05T02:15:09.299Z,18.94
2018-08-05T02:16:09.273Z,18.91
2018-08-05T02:17:09.254Z,18.94
2018-08-05T02:18:09.235Z,18.94
2018-08-05T02:19:09.216Z,18.94
2018-08-05T02:20:09.196Z,18.94
2018-08-05T02:21:09.178Z,18.94
2018-08-05T02:22:09.160Z,18.95
2018-08-05T02:23:09.140Z,18.94
2018-08-05T02:24:09.121Z,18.91
2018-08-05T02:25:09.102Z,18.90
2018-08-05T02:26:09.083Z,18.87
2018-08-05T02:27:09.066Z,18.92
2018-08-05T02:28:09.045Z,18.92
2018-08-05T02:29:09.025Z,18.84
2018-08-05T02:30:09.008Z,18.92
2018-08-05T02:31:08.986Z,18.91
2018-08-05T02:32:08.967Z,18.90
2018-08-05T02:33:08.948Z,18.82
2018-08-05T02:34:08.930Z,18.82
2018-08-05T02:35:08.912Z,18.81
2018-08-05T02:36:08.891Z,18.73
2018-08-05T02:37:08.873Z,18.81
2018-08-05T02:38:08.852Z,18.73
2018-08-05T02:39:08.833Z,18.66
2018-08-05T02:40:08.817Z,18.63
2018-08-05T02:41:08.796Z,18.63
2018-08-05T02:42:08.775Z,18.65
2018-08-05T02:43:08.757Z,18.63
2018-08-05T02:44:08.738Z,18.63
2018-08-05T02:45:08.719Z,18.57
2018-08-05T02:46:08.698Z,18.51
2018-08-05T02:47:08.682Z,18.48
2018-08-05T02:48:08.661Z,18.54
2018-08-05T02:49:08.640Z,18.55
2018-08-05T02:50:08.621Z,18.47
2018-08-05T02:51:08.602Z,18.47
2018-08-05T02:52:08.585Z,18.45
2018-08-05T02:53:08.562Z,18.39
2018-08-05T02:54:08.543Z,18.44
2018-08-05T02:55:08.525Z,18.33
2018-08-05T02:56:08.505Z,18.30
2018-08-05T02:57:08.497Z,18.26
2018-08-05T02:58:08.464Z,18.27
2018-08-05T02:59:08.450Z,18.26
2018-08-05T03:00:08.426Z,18.27
2018-08-05T03:01:08.412Z,18.18
2018-08-05T03:02:08.388Z,18.15
2018-08-05T03:03:08.369Z,18.15
2018-08-05T03:04:08.350Z,18.18
2018-08-05T03:05:08.329Z,18.18
2018-08-05T03:06:08.309Z,18.11
2018-08-05T03:07:08.290Z,18.03
2018-08-05T03:08:08.270Z,18.07
2018-08-05T03:09:08.250Z,18.00
2018-08-05T03:10:08.271Z,17.96
2018-08-05T03:11:08.212Z,17.97
2018-08-05T03:12:08.191Z,17.95
2018-08-05T03:13:08.174Z,17.95
2018-08-05T03:14:08.152Z,18.05
2018-08-05T03:15:08.136Z,17.92
2018-08-05T03:16:08.114Z,17.96
2018-08-05T03:17:08.094Z,17.96
2018-08-05T03:18:08.077Z,17.89
2018-08-05T03:19:08.053Z,17.93
2018-08-05T03:20:08.035Z,17.86
2018-08-05T03:21:08.016Z,17.90
2018-08-05T03:22:07.996Z,17.87
2018-08-05T03:23:07.973Z,17.86
2018-08-05T03:24:07.956Z,17.84
2018-08-05T03:25:07.938Z,17.84
2018-08-05T03:26:07.916Z,17.84
2018-08-05T03:27:07.896Z,17.87
2018-08-05T03:28:07.877Z,17.86
2018-08-05T03:29:07.857Z,17.79
2018-08-05T03:30:07.844Z,17.79
2018-08-05T03:31:07.816Z,17.81
2018-08-05T03:32:07.799Z,17.78
2018-08-05T03:33:07.780Z,17.81
2018-08-05T03:34:07.757Z,17.81
2018-08-05T03:35:07.738Z,17.75
2018-08-05T03:36:07.717Z,17.75
2018-08-05T03:37:07.697Z,17.70
2018-08-05T03:38:07.676Z,17.70
2018-08-05T03:39:07.658Z,17.70
2018-08-05T03:40:07.637Z,17.70
2018-08-05T03:41:07.621Z,17.71
2018-08-05T03:42:07.597Z,17.70
2018-08-05T03:43:07.578Z,17.75
2018-08-05T03:44:07.559Z,17.71
2018-08-05T03:45:07.541Z,17.79
2018-08-05T03:46:07.519Z,17.86
2018-08-05T03:47:07.499Z,17.81
2018-08-05T03:48:07.479Z,17.86
2018-08-05T03:49:07.460Z,17.96
2018-08-05T03:50:07.439Z,17.89
2018-08-05T03:51:07.420Z,18.02
2018-08-05T03:52:07.401Z,17.95
2018-08-05T03:53:07.381Z,18.00
2018-08-05T03:54:07.361Z,18.03
2018-08-05T03:55:07.340Z,18.10
2018-08-05T03:56:07.321Z,18.12
2018-08-05T03:57:07.310Z,18.10
2018-08-05T03:58:07.281Z,18.15
2018-08-05T03:59:07.267Z,18.17
2018-08-05T04:00:07.244Z,18.20
2018-08-05T04:01:07.223Z,18.20
2018-08-05T04:02:07.205Z,18.20
2018-08-05T04:03:07.189Z,18.18
2018-08-05T04:04:07.170Z,18.25
2018-08-05T04:05:07.145Z,18.27
2018-08-05T04:06:07.124Z,18.23
2018-08-05T04:07:07.105Z,18.20
2018-08-05T04:08:07.087Z,18.33
2018-08-05T04:09:07.070Z,18.26
2018-08-05T04:10:07.049Z,18.27
2018-08-05T04:11:07.028Z,18.25
2018-08-05T04:12:07.010Z,18.30
2018-08-05T04:13:06.990Z,18.27
2018-08-05T04:14:06.969Z,18.23
2018-08-05T04:15:06.950Z,18.26
2018-08-05T04:16:06.931Z,18.32
2018-08-05T04:17:06.911Z,18.32
2018-08-05T04:18:06.892Z,18.33
2018-08-05T04:19:06.872Z,18.30
2018-08-05T04:20:06.853Z,18.36
2018-08-05T04:21:06.832Z,18.29
2018-08-05T04:22:06.814Z,18.30
2018-08-05T04:23:06.795Z,18.29
2018-08-05T04:24:06.775Z,18.27
2018-08-05T04:25:06.758Z,18.27
2018-08-05T04:26:06.734Z,18.21
2018-08-05T04:27:06.715Z,18.21
2018-08-05T04:28:06.697Z,18.15
2018-08-05T04:29:06.677Z,18.08
2018-08-05T04:30:06.656Z,18.07
2018-08-05T04:31:06.635Z,18.08
2018-08-05T04:32:06.617Z,18.15
2018-08-05T04:33:06.598Z,18.11
2018-08-05T04:34:06.577Z,18.10
2018-08-05T04:35:06.557Z,18.23
2018-08-05T04:36:06.537Z,18.23
2018-08-05T04:37:06.521Z,18.29
2018-08-05T04:38:06.501Z,18.37
2018-08-05T04:39:06.479Z,18.39
2018-08-05T04:40:06.458Z,18.45
2018-08-05T04:41:06.440Z,18.48
2018-08-05T04:42:06.420Z,18.45
2018-08-05T04:43:06.400Z,18.42
2018-08-05T04:44:06.381Z,18.42
2018-08-05T04:45:06.360Z,18.44
2018-08-05T04:46:06.342Z,18.37
2018-08-05T04:47:06.323Z,18.48
2018-08-05T04:48:06.301Z,18.41
2018-08-05T04:49:06.282Z,18.47
2018-08-05T04:50:06.262Z,18.47
2018-08-05T04:51:06.242Z,18.50
2018-08-05T04:52:06.222Z,18.45
2018-08-05T04:53:06.203Z,18.52
2018-08-05T04:54:06.184Z,18.62
2018-08-05T04:55:06.164Z,18.47
2018-08-05T04:56:06.144Z,18.52
2018-08-05T04:57:06.124Z,18.50
2018-08-05T04:58:06.118Z,18.63
2018-08-05T04:59:06.086Z,18.58
2018-08-05T05:00:06.067Z,18.63
2018-08-05T05:01:06.047Z,18.67
2018-08-05T05:02:06.025Z,18.65
2018-08-05T05:03:06.008Z,18.60
2018-08-05T05:04:05.987Z,18.62
2018-08-05T05:05:05.969Z,18.75
2018-08-05T05:06:05.948Z,18.67
2018-08-05T05:07:05.930Z,18.80
2018-08-05T05:08:05.909Z,18.76
2018-08-05T05:09:05.890Z,18.82
2018-08-05T05:10:05.870Z,18.78
2018-08-05T05:11:05.852Z,18.67
2018-08-05T05:12:05.830Z,18.70
2018-08-05T05:13:05.812Z,18.76
2018-08-05T05:14:05.792Z,18.73
2018-08-05T05:15:05.773Z,18.70
2018-08-05T05:16:05.755Z,18.76
2018-08-05T05:17:05.736Z,18.88
2018-08-05T05:18:05.714Z,18.94
2018-08-05T05:19:05.694Z,18.90
2018-08-05T05:20:05.674Z,18.90
2018-08-05T05:21:05.656Z,18.95
2018-08-05T05:22:05.635Z,18.99
2018-08-05T05:23:05.616Z,19.14
2018-08-05T05:24:05.598Z,19.32
2018-08-05T05:25:05.578Z,19.40
2018-08-05T05:26:05.563Z,19.29
2018-08-05T05:27:05.542Z,19.41
2018-08-05T05:28:05.520Z,19.41
2018-08-05T05:29:05.504Z,19.25
2018-08-05T05:30:05.482Z,19.28
2018-08-05T05:31:05.463Z,19.26
2018-08-05T05:32:05.445Z,19.28
2018-08-05T05:33:05.426Z,19.28
2018-08-05T05:34:05.410Z,19.31
2018-08-05T05:35:05.387Z,19.33
2018-08-05T05:36:05.368Z,19.32
2018-08-05T05:37:05.348Z,19.21
2018-08-05T05:38:05.329Z,19.22
2018-08-05T05:39:05.311Z,19.28
2018-08-05T05:40:05.292Z,19.26
2018-08-05T05:41:05.272Z,19.31
2018-08-05T05:42:05.252Z,19.26
2018-08-05T05:43:05.232Z,19.31
2018-08-05T05:44:05.216Z,19.29
2018-08-05T05:45:05.197Z,19.31
2018-08-05T05:46:05.177Z,19.41
2018-08-05T05:47:05.158Z,19.56
2018-08-05T05:48:05.187Z,19.62
2018-08-05T05:49:05.121Z,19.55
2018-08-05T05:50:05.100Z,19.59
2018-08-05T05:51:05.081Z,19.65
2018-08-05T05:52:05.064Z,19.66
2018-08-05T05:53:05.045Z,19.73
2018-08-05T05:54:05.066Z,19.61
2018-08-05T05:55:05.005Z,19.66
2018-08-05T05:56:04.986Z,19.66
2018-08-05T05:57:04.969Z,19.80
2018-08-05T05:58:04.951Z,19.74
2018-08-05T05:59:04.931Z,19.81
2018-08-05T06:00:04.912Z,19.80
2018-08-05T06:01:04.893Z,19.81
2018-08-05T06:02:04.874Z,19.96
2018-08-05T06:03:04.855Z,19.96
2018-08-05T06:04:04.836Z,20.06
2018-08-05T06:05:04.821Z,20.14
2018-08-05T06:06:04.799Z,20.26
2018-08-05T06:07:04.780Z,20.28
2018-08-05T06:08:04.763Z,20.35
2018-08-05T06:09:04.745Z,20.32
2018-08-05T06:10:04.726Z,20.35
2018-08-05T06:11:04.707Z,20.48
2018-08-05T06:12:04.689Z,20.43
2018-08-05T06:13:04.672Z,20.51
2018-08-05T06:14:04.652Z,20.61
2018-08-05T06:15:04.635Z,20.62
2018-08-05T06:16:04.619Z,20.58
2018-08-05T06:17:04.599Z,20.59
2018-08-05T06:18:04.580Z,20.62
2018-08-05T06:19:04.562Z,20.72
2018-08-05T06:20:04.550Z,20.67
2018-08-05T06:21:04.525Z,20.70
2018-08-05T06:22:04.507Z,20.79
2018-08-05T06:23:04.490Z,20.72
2018-08-05T06:24:04.471Z,20.74
2018-08-05T06:25:04.608Z,20.74
2018-08-05T06:26:04.436Z,20.76
2018-08-05T06:27:04.417Z,20.82
2018-08-05T06:28:04.401Z,20.91
2018-08-05T06:29:04.383Z,20.87
2018-08-05T06:30:04.365Z,20.97
2018-08-05T06:31:04.345Z,21.27
2018-08-05T06:32:04.327Z,21.64
2018-08-05T06:33:04.310Z,22.21
2018-08-05T06:34:04.312Z,22.40
2018-08-05T06:35:04.275Z,22.37
2018-08-05T06:36:04.257Z,22.02
2018-08-05T06:37:04.240Z,21.82
2018-08-05T06:38:04.222Z,22.02
2018-08-05T06:39:04.203Z,22.09
2018-08-05T06:40:04.187Z,22.43
2018-08-05T06:41:04.170Z,23.47
2018-08-05T06:42:04.153Z,24.64
2018-08-05T06:43:04.142Z,25.36
2018-08-05T06:44:04.119Z,25.85
2018-08-05T06:45:04.103Z,26.30
2018-08-05T06:46:04.085Z,26.92
2018-08-05T06:47:04.070Z,26.92
2018-08-05T06:48:04.057Z,27.21
2018-08-05T06:49:04.038Z,27.50
2018-08-05T06:50:04.293Z,27.81
2018-08-05T06:51:04.008Z,28.11
2018-08-05T06:52:04.162Z,28.04
2018-08-05T06:53:04.196Z,27.51
2018-08-05T06:54:03.969Z,28.00
2018-08-05T06:55:03.956Z,28.71
2018-08-05T06:56:03.941Z,29.02
2018-08-05T06:57:03.926Z,29.18
2018-08-05T06:58:03.915Z,29.64
2018-08-05T06:59:03.899Z,29.82
2018-08-05T07:00:03.888Z,29.92
2018-08-05T07:01:03.875Z,27.84
2018-08-05T07:02:03.862Z,26.13
2018-08-05T07:03:03.852Z,26.01
2018-08-05T07:04:03.838Z,25.80
2018-08-05T07:05:03.826Z,25.38
2018-08-05T07:06:03.815Z,25.75
2018-08-05T07:07:03.799Z,24.99
2018-08-05T07:08:03.785Z,24.67
2018-08-05T07:09:03.779Z,24.32
2018-08-05T07:10:03.801Z,23.75
2018-08-05T07:11:03.747Z,23.38
2018-08-05T07:12:03.733Z,23.35
2018-08-05T07:13:03.736Z,24.47
2018-08-05T07:14:03.729Z,25.25
2018-08-05T07:15:03.697Z,25.85
2018-08-05T07:16:03.679Z,25.90
2018-08-05T07:17:03.666Z,25.97
2018-08-05T07:18:03.655Z,25.79
2018-08-05T07:19:03.654Z,25.23
2018-08-05T07:20:03.623Z,25.13
2018-08-05T07:21:04.173Z,24.77
2018-08-05T07:22:03.594Z,24.49
2018-08-05T07:23:03.582Z,24.46
2018-08-05T07:24:03.569Z,24.21
2018-08-05T07:25:03.556Z,24.31
2018-08-05T07:26:03.538Z,24.05
2018-08-05T07:27:03.524Z,23.78
2018-08-05T07:28:03.511Z,23.78
2018-08-05T07:29:03.497Z,23.69
2018-08-05T07:30:03.481Z,23.75
2018-08-05T07:31:03.465Z,23.73
2018-08-05T07:32:03.492Z,23.38
2018-08-05T07:33:03.439Z,23.31
2018-08-05T07:34:03.424Z,23.22
2018-08-05T07:35:03.409Z,23.32
2018-08-05T07:36:03.396Z,23.32
2018-08-05T07:37:03.381Z,23.36
2018-08-05T07:38:03.467Z,23.54
2018-08-05T07:39:03.349Z,23.73
2018-08-05T07:40:03.342Z,23.75
2018-08-05T07:41:03.319Z,23.78
2018-08-05T07:42:03.307Z,23.60
2018-08-05T07:43:03.288Z,23.80
2018-08-05T07:44:03.277Z,23.50
2018-08-05T07:45:03.258Z,23.72
2018-08-05T07:46:03.288Z,23.73
2018-08-05T07:47:03.226Z,23.78
2018-08-05T07:48:03.211Z,23.69
2018-08-05T07:49:03.197Z,23.80
2018-08-05T07:50:03.190Z,23.93
2018-08-05T07:51:03.189Z,23.84
2018-08-05T07:52:03.182Z,23.88
2018-08-05T07:53:03.139Z,23.78
2018-08-05T07:54:03.121Z,23.93
2018-08-05T07:55:03.106Z,23.98
2018-08-05T07:56:03.111Z,23.90
2018-08-05T07:57:03.075Z,24.13
2018-08-05T07:58:03.059Z,24.05
2018-08-05T07:59:03.047Z,23.91
2018-08-05T08:00:03.032Z,24.08
2018-08-05T08:01:03.016Z,24.02
2018-08-05T08:02:03.002Z,23.78
2018-08-05T08:03:02.985Z,23.79
2018-08-05T08:04:02.969Z,23.70
2018-08-05T08:05:02.979Z,23.94
2018-08-05T08:06:02.936Z,24.47
2018-08-05T08:07:02.924Z,25.14
2018-08-05T08:08:02.909Z,25.35
2018-08-05T08:09:02.903Z,25.45
2018-08-05T08:10:02.879Z,25.98
2018-08-05T08:11:02.868Z,25.99
2018-08-05T08:12:02.849Z,25.61
2018-08-05T08:13:02.837Z,26.02
2018-08-05T08:14:02.828Z,27.21
2018-08-05T08:15:02.804Z,26.97
2018-08-05T08:16:02.792Z,26.33
2018-08-05T08:17:02.777Z,26.95
2018-08-05T08:18:02.761Z,27.12
2018-08-05T08:19:02.751Z,27.32
2018-08-05T08:20:02.734Z,27.94
2018-08-05T08:21:02.721Z,27.82
2018-08-05T08:22:02.707Z,26.69
2018-08-05T08:23:02.727Z,27.03
2018-08-05T08:24:02.681Z,27.31
2018-08-05T08:25:02.668Z,27.57
2018-08-05T08:26:02.655Z,28.36
2018-08-05T08:27:02.746Z,28.55
2018-08-05T08:28:02.630Z,28.88
2018-08-05T08:29:02.618Z,28.70
2018-08-05T08:30:02.601Z,28.89
2018-08-05T08:31:02.590Z,28.73
2018-08-05T08:32:02.578Z,29.46
2018-08-05T08:33:02.565Z,29.52
2018-08-05T08:34:02.554Z,28.95
2018-08-05T08:35:02.540Z,28.77
2018-08-05T08:36:02.532Z,27.00
2018-08-05T08:37:02.517Z,25.90
2018-08-05T08:38:02.503Z,25.32
2018-08-05T08:39:02.493Z,25.83
2018-08-05T08:40:02.479Z,26.57
2018-08-05T08:41:02.468Z,27.19
2018-08-05T08:42:02.458Z,27.49
2018-08-05T08:43:02.440Z,27.14
2018-08-05T08:44:02.437Z,28.04
2018-08-05T08:45:02.421Z,28.92
2018-08-05T08:46:02.404Z,28.43
2018-08-05T08:47:02.392Z,27.72
2018-08-05T08:48:02.379Z,28.00
2018-08-05T08:49:02.367Z,27.66
2018-08-05T08:50:02.428Z,27.09
2018-08-05T08:51:02.342Z,26.45
2018-08-05T08:52:02.350Z,26.02
2018-08-05T08:53:02.317Z,25.83
2018-08-05T08:54:02.383Z,25.36
2018-08-05T08:55:02.291Z,24.69
2018-08-05T08:56:02.278Z,24.34
2018-08-05T08:57:02.265Z,24.31
2018-08-05T08:58:02.309Z,23.91
2018-08-05T08:59:02.239Z,23.90
2018-08-05T09:00:02.227Z,23.75
2018-08-05T09:01:02.212Z,23.75
2018-08-05T09:02:02.196Z,23.76
2018-08-05T09:03:02.183Z,23.78
2018-08-05T09:04:02.172Z,23.73
2018-08-05T09:05:02.157Z,23.68
2018-08-05T09:06:02.139Z,23.61
2018-08-05T09:07:02.123Z,23.83
2018-08-05T09:08:02.111Z,23.60
2018-08-05T09:09:02.097Z,23.58
2018-08-05T09:10:02.080Z,23.53
2018-08-05T09:11:02.064Z,23.51
2018-08-05T09:12:02.050Z,23.51
2018-08-05T09:13:02.035Z,23.43
2018-08-05T09:14:02.019Z,23.33
2018-08-05T09:15:02.006Z,23.15
2018-08-05T09:16:01.991Z,24.64
2018-08-05T09:17:01.975Z,25.91
2018-08-05T09:18:02.007Z,27.07
2018-08-05T09:19:01.944Z,27.41
2018-08-05T09:20:01.930Z,27.00
2018-08-05T09:21:01.915Z,26.29
2018-08-05T09:22:01.900Z,25.70
2018-08-05T09:23:01.885Z,26.43
2018-08-05T09:24:01.871Z,27.28
2018-08-05T09:25:01.857Z,28.06
2018-08-05T09:26:01.843Z,27.93
2018-08-05T09:27:01.833Z,27.37
2018-08-05T09:28:01.816Z,27.27
2018-08-05T09:29:01.804Z,27.82
2018-08-05T09:30:01.789Z,28.55
2018-08-05T09:31:01.786Z,29.02
2018-08-05T09:32:01.763Z,29.02
2018-08-05T09:33:01.751Z,29.28
2018-08-05T09:34:01.737Z,29.60
2018-08-05T09:35:01.724Z,29.92
2018-08-05T09:36:01.714Z,29.92
2018-08-05T09:37:01.717Z,29.87
2018-08-05T09:38:01.687Z,30.37
2018-08-05T09:39:01.677Z,30.38
2018-08-05T09:40:01.664Z,29.85
2018-08-05T09:41:01.653Z,30.79
2018-08-05T09:42:01.640Z,30.69
2018-08-05T09:43:01.630Z,29.41
2018-08-05T09:44:01.619Z,28.46
2018-08-05T09:45:01.607Z,28.07
2018-08-05T09:46:01.595Z,27.06
2018-08-05T09:47:01.584Z,26.70
2018-08-05T09:48:01.572Z,27.21
2018-08-05T09:49:01.658Z,27.97
2018-08-05T09:50:01.548Z,28.04
2018-08-05T09:51:01.542Z,27.21
2018-08-05T09:52:01.523Z,26.66
2018-08-05T09:53:01.511Z,27.60
2018-08-05T09:54:01.505Z,27.18
2018-08-05T09:55:01.488Z,28.18
2018-08-05T09:56:01.476Z,28.88
2018-08-05T09:57:01.519Z,29.31
2018-08-05T09:58:01.452Z,29.33
2018-08-05T09:59:01.438Z,29.78
2018-08-05T10:00:01.428Z,30.76
2018-08-05T10:01:01.414Z,30.35
2018-08-05T10:02:01.405Z,29.27
2018-08-05T10:03:01.392Z,28.77
2018-08-05T10:04:01.380Z,28.07
2018-08-05T10:05:01.370Z,27.28
2018-08-05T10:06:01.358Z,26.73
2018-08-05T10:07:01.345Z,26.35
2018-08-05T10:08:01.334Z,26.10
2018-08-05T10:09:01.322Z,25.75
2018-08-05T10:10:01.311Z,25.39
2018-08-05T10:11:01.368Z,25.50
2018-08-05T10:12:01.285Z,25.50
2018-08-05T10:13:01.271Z,25.47
2018-08-05T10:14:01.259Z,25.14
2018-08-05T10:15:01.246Z,25.03
2018-08-05T10:16:01.232Z,25.35
2018-08-05T10:17:01.222Z,25.38
2018-08-05T10:18:01.208Z,25.47
2018-08-05T10:19:01.194Z,25.35
2018-08-05T10:20:01.179Z,25.36
2018-08-05T10:21:01.167Z,25.18
2018-08-05T10:22:01.153Z,26.26
2018-08-05T10:23:01.140Z,25.88
2018-08-05T10:24:01.126Z,25.94
2018-08-05T10:25:01.116Z,26.69
2018-08-05T10:26:01.100Z,27.81
2018-08-05T10:27:01.088Z,28.58
2018-08-05T10:28:01.115Z,27.90
2018-08-05T10:29:01.059Z,27.63
2018-08-05T10:30:01.049Z,27.36
2018-08-05T10:31:01.035Z,27.02
2018-08-05T10:32:01.018Z,26.63
2018-08-05T10:33:01.006Z,26.25
2018-08-05T10:34:00.993Z,25.67
2018-08-05T10:35:00.978Z,25.32
2018-08-05T10:36:00.965Z,25.20
2018-08-05T10:37:00.961Z,24.91
2018-08-05T10:38:00.939Z,24.91
2018-08-05T10:39:00.958Z,26.32
2018-08-05T10:40:00.912Z,27.90
2018-08-05T10:41:00.898Z,28.54
2018-08-05T10:42:00.885Z,27.84
2018-08-05T10:43:00.870Z,27.46
2018-08-05T10:44:00.859Z,26.72
2018-08-05T10:45:00.847Z,25.77
2018-08-05T10:46:00.834Z,26.82
2018-08-05T10:47:00.817Z,27.94
2018-08-05T10:48:00.804Z,28.71
2018-08-05T10:49:00.791Z,29.57
2018-08-05T10:50:00.777Z,29.90
2018-08-05T10:51:00.763Z,29.92
2018-08-05T10:52:00.752Z,30.08
2018-08-05T10:53:00.782Z,29.43
2018-08-05T10:54:00.724Z,29.89
2018-08-05T10:55:00.714Z,30.11
2018-08-05T10:56:00.701Z,30.84
2018-08-05T10:57:00.689Z,29.73
2018-08-05T10:58:00.676Z,28.43
2018-08-05T10:59:00.662Z,27.49
2018-08-05T11:00:00.653Z,27.31
2018-08-05T11:01:00.641Z,28.30
2018-08-05T11:02:00.627Z,28.98
2018-08-05T11:03:00.617Z,30.00
2018-08-05T11:04:00.603Z,30.55
2018-08-05T11:05:00.591Z,31.17
2018-08-05T11:06:00.581Z,31.66
2018-08-05T11:07:00.568Z,30.45
2018-08-05T11:08:00.555Z,29.89
2018-08-05T11:09:00.545Z,28.43
2018-08-05T11:10:00.532Z,27.70
2018-08-05T11:11:00.520Z,27.06
2018-08-05T11:12:00.509Z,27.18
2018-08-05T11:13:00.542Z,28.41
2018-08-05T11:14:00.484Z,29.36
2018-08-05T11:15:00.473Z,29.79
2018-08-05T11:16:00.461Z,30.15
2018-08-05T11:17:00.449Z,30.84
2018-08-05T11:18:00.437Z,31.38
2018-08-05T11:19:00.426Z,31.20
2018-08-05T11:20:00.414Z,31.58
2018-08-05T11:21:00.401Z,30.10
2018-08-05T11:22:00.388Z,29.14
2018-08-05T11:23:00.377Z,29.33
2018-08-05T11:24:00.366Z,29.94
2018-08-05T11:25:00.400Z,29.95
2018-08-05T11:26:00.341Z,30.60
2018-08-05T11:27:00.333Z,30.91
2018-08-05T11:28:00.319Z,30.45
2018-08-05T11:29:00.308Z,29.30
2018-08-05T11:30:00.295Z,28.40
2018-08-05T11:31:00.284Z,29.14
2018-08-05T11:32:00.272Z,30.23
2018-08-05T11:33:00.261Z,30.61
2018-08-05T11:34:00.248Z,31.06
2018-08-05T11:35:00.240Z,31.26
2018-08-05T11:36:00.227Z,31.80
2018-08-05T11:37:00.215Z,31.66
2018-08-05T11:38:00.202Z,31.19
2018-08-05T11:39:00.190Z,30.64
2018-08-05T11:40:00.181Z,30.22
2018-08-05T11:41:00.186Z,29.53
2018-08-05T11:42:00.158Z,29.31
2018-08-05T11:43:00.146Z,28.81
2018-08-05T11:44:00.136Z,28.58
2018-08-05T11:45:00.126Z,28.18
2018-08-05T11:46:00.110Z,28.43
2018-08-05T11:47:00.117Z,29.06
2018-08-05T11:48:00.089Z,29.89
2018-08-05T11:49:00.077Z,30.92
2018-08-05T11:50:00.063Z,31.44
2018-08-05T11:51:00.053Z,31.07
2018-08-05T11:52:00.045Z,31.35
2018-08-05T11:53:00.030Z,31.44
2018-08-05T11:54:00.018Z,31.31
2018-08-05T11:55:00.006Z,30.77
2018-08-05T11:56:00.016Z,31.32
2018-08-05T11:56:59.986Z,32.03
2018-08-05T11:57:59.972Z,32.63
2018-08-05T11:58:59.961Z,32.82
2018-08-05T11:59:59.951Z,33.01
2018-08-05T12:00:59.939Z,32.96
2018-08-05T12:01:59.959Z,32.93
2018-08-05T12:02:59.918Z,33.38
2018-08-05T12:03:59.906Z,32.84
2018-08-05T12:04:59.911Z,32.87
2018-08-05T12:05:59.884Z,33.54
2018-08-05T12:06:59.874Z,33.59
2018-08-05T12:07:59.864Z,33.60
2018-08-05T12:08:59.855Z,33.87
2018-08-05T12:09:59.844Z,33.79
2018-08-05T12:10:59.834Z,32.29
2018-08-05T12:11:59.826Z,30.92
2018-08-05T12:12:59.815Z,29.76
2018-08-05T12:13:59.803Z,29.28
2018-08-05T12:14:59.791Z,28.98
2018-08-05T12:15:59.782Z,28.02
2018-08-05T12:16:59.771Z,28.02
2018-08-05T12:17:59.758Z,28.54
2018-08-05T12:18:59.748Z,29.41
2018-08-05T12:19:59.739Z,29.18
2018-08-05T12:20:59.725Z,28.92
2018-08-05T12:21:59.712Z,28.21
2018-08-05T12:22:59.702Z,28.74
2018-08-05T12:23:59.691Z,28.22
2018-08-05T12:24:59.692Z,29.02
2018-08-05T12:25:59.665Z,30.02
2018-08-05T12:26:59.654Z,30.62
2018-08-05T12:27:59.642Z,30.86
2018-08-05T12:28:59.686Z,31.17
2018-08-05T12:29:59.618Z,31.57
2018-08-05T12:30:59.608Z,32.22
2018-08-05T12:31:59.597Z,32.45
2018-08-05T12:32:59.585Z,32.63
2018-08-05T12:33:59.573Z,32.38
2018-08-05T12:34:59.560Z,31.81
2018-08-05T12:35:59.549Z,32.35
2018-08-05T12:36:59.540Z,32.66
2018-08-05T12:37:59.528Z,32.84
2018-08-05T12:38:59.516Z,32.89
2018-08-05T12:39:59.505Z,32.89
2018-08-05T12:40:59.501Z,32.29
2018-08-05T12:41:59.483Z,31.85
2018-08-05T12:42:59.473Z,32.07
2018-08-05T12:43:59.487Z,32.30
2018-08-05T12:44:59.450Z,32.25
2018-08-05T12:45:59.440Z,32.10
2018-08-05T12:46:59.429Z,32.35
2018-08-05T12:47:59.418Z,32.87
2018-08-05T12:48:59.408Z,32.77
2018-08-05T12:49:59.397Z,32.40
2018-08-05T12:50:59.386Z,32.08
2018-08-05T12:51:59.380Z,32.22